Time;durP1;ratioP1;P1;durP2;ratioP2;P2;SDS_P1;SDS_P2;PMS_P1;PMS_P2;Temp;Humidity;BMP_temperature;BMP_pressure;BME280_temperature;BME280_humidity;BME280_pressure;Samples;Min_cycle;Max_cycle;Signal;HPM_P1;HPM_P2
2022/04/06 00:00:43;;;;;;;30.70;14.27;;;8.50;99.90;;;;;;5053412;28;20094;-81
2022/04/06 00:03:09;;;;;;;25.17;14.15;;;8.50;99.90;;;;;;5058153;28;20075;-81
2022/04/06 00:05:35;;;;;;;31.33;14.35;;;8.50;99.90;;;;;;5052821;28;20084;-81
2022/04/06 00:08:01;;;;;;;29.63;14.48;;;8.50;99.90;;;;;;5057925;28;20068;-81
2022/04/06 00:10:28;;;;;;;29.20;15.90;;;8.50;99.90;;;;;;5072125;28;20052;-82
2022/04/06 00:12:54;;;;;;;29.30;14.05;;;8.40;99.90;;;;;;5056155;28;20127;-81
2022/04/06 00:15:20;;;;;;;31.13;14.15;;;8.50;99.90;;;;;;5072084;28;20175;-81
2022/04/06 00:17:46;;;;;;;29.45;14.32;;;8.50;99.90;;;;;;5073167;28;20588;-81
2022/04/06 00:20:12;;;;;;;28.92;14.07;;;8.50;99.90;;;;;;5072034;28;20505;-81
2022/04/06 00:22:38;;;;;;;23.75;14.13;;;8.50;99.90;;;;;;5071737;28;20055;-81
2022/04/06 00:25:04;;;;;;;32.55;15.52;;;8.50;99.90;;;;;;5072311;28;20056;-81
2022/04/06 00:27:29;;;;;;;33.80;15.48;;;8.50;99.90;;;;;;5055453;28;20040;-81
2022/04/06 00:29:55;;;;;;;22.80;12.77;;;8.50;99.90;;;;;;5072497;28;20049;-81
2022/04/06 00:32:21;;;;;;;27.15;14.40;;;8.50;99.90;;;;;;5055621;28;20116;-81
2022/04/06 00:37:30;;;;;;;27.83;14.23;;;8.50;99.90;;;;;;5064048;28;20048;-81
2022/04/06 00:39:56;;;;;;;26.40;14.23;;;8.50;99.90;;;;;;5070280;28;20466;-81
2022/04/06 00:42:21;;;;;;;30.25;13.20;;;8.50;99.90;;;;;;5062772;28;20101;-81
2022/04/06 00:44:47;;;;;;;28.65;12.35;;;8.60;99.90;;;;;;5068450;28;20049;-81
2022/04/06 00:47:13;;;;;;;25.95;14.27;;;8.60;99.90;;;;;;5072565;28;20052;-81
2022/04/06 00:49:38;;;;;;;28.80;12.52;;;8.60;99.90;;;;;;5072800;28;20497;-81
2022/04/06 00:52:05;;;;;;;27.73;12.88;;;8.60;99.90;;;;;;5070009;28;20374;-81
2022/04/06 00:54:32;;;;;;;27.50;13.70;;;8.60;99.90;;;;;;5093013;28;20032;-81
2022/04/06 00:56:59;;;;;;;26.98;12.82;;;8.60;99.90;;;;;;5084727;28;20053;-81
2022/04/06 00:59:27;;;;;;;23.05;11.80;;;8.60;99.90;;;;;;5066970;28;20056;-82
2022/04/06 01:01:53;;;;;;;29.83;12.52;;;8.60;99.90;;;;;;5053478;28;20033;-81
2022/04/06 01:04:19;;;;;;;22.70;10.57;;;8.60;99.90;;;;;;5052426;28;20044;-81
2022/04/06 01:06:46;;;;;;;27.60;11.50;;;8.70;99.90;;;;;;5053647;28;20142;-81
2022/04/06 01:09:13;;;;;;;24.23;10.35;;;8.70;99.90;;;;;;5069784;28;20044;-81
2022/04/06 01:11:41;;;;;;;21.60;10.70;;;8.70;99.90;;;;;;5054281;28;20036;-82
2022/04/06 01:14:07;;;;;;;24.10;11.63;;;8.70;99.90;;;;;;5061627;28;20036;-81
2022/04/06 01:16:33;;;;;;;24.25;10.30;;;8.70;99.90;;;;;;5071421;28;20207;-81
2022/04/06 01:18:58;;;;;;;24.58;10.45;;;8.70;99.90;;;;;;5047008;28;20127;-81
2022/04/06 01:21:24;;;;;;;26.15;11.00;;;8.80;99.90;;;;;;5059095;28;20052;-81
2022/04/06 01:23:49;;;;;;;19.98;9.60;;;8.80;99.90;;;;;;5070214;28;20480;-81
2022/04/06 01:26:15;;;;;;;22.52;9.23;;;8.80;99.90;;;;;;5072250;28;20497;-81
2022/04/06 01:28:41;;;;;;;20.63;9.52;;;8.80;99.90;;;;;;5055931;28;20445;-81
2022/04/06 01:31:07;;;;;;;22.73;9.52;;;8.80;99.90;;;;;;5055336;28;20041;-81
2022/04/06 01:33:33;;;;;;;18.60;9.13;;;8.80;99.90;;;;;;5062016;28;20045;-82
2022/04/06 01:36:00;;;;;;;21.10;10.05;;;8.80;99.90;;;;;;5054012;28;20048;-81
2022/04/06 01:38:26;;;;;;;18.20;9.38;;;8.80;99.90;;;;;;5092619;28;20120;-82
2022/04/06 01:40:53;;;;;;;17.35;9.10;;;8.80;99.90;;;;;;5077503;28;20424;-81
2022/04/06 01:43:19;;;;;;;22.42;9.90;;;8.80;99.90;;;;;;5071442;28;20040;-82
2022/04/06 01:45:45;;;;;;;16.55;9.43;;;8.70;99.90;;;;;;5073201;28;20055;-81
2022/04/06 01:48:13;;;;;;;19.75;10.38;;;8.80;99.90;;;;;;5072095;28;20045;-82
2022/04/06 01:53:23;;;;;;;19.25;10.23;;;8.80;99.90;;;;;;5071023;28;20070;-81
2022/04/06 01:55:48;;;;;;;20.45;10.68;;;8.90;99.90;;;;;;5071413;28;20032;-81
2022/04/06 01:58:14;;;;;;;18.23;10.88;;;8.90;99.90;;;;;;5054481;28;20071;-81
2022/04/06 02:00:40;;;;;;;18.83;10.85;;;8.90;99.90;;;;;;5066666;28;20041;-81
2022/04/06 02:03:06;;;;;;;19.80;10.30;;;8.80;99.90;;;;;;5060648;28;20052;-81
2022/04/06 02:05:33;;;;;;;20.05;10.77;;;8.80;99.90;;;;;;5069592;28;20398;-81
2022/04/06 02:07:59;;;;;;;20.88;10.13;;;8.80;99.90;;;;;;5051632;28;20486;-82
2022/04/06 02:10:25;;;;;;;22.08;11.35;;;8.80;99.90;;;;;;5069236;28;20041;-81
2022/04/06 02:12:54;;;;;;;19.25;10.13;;;8.80;99.90;;;;;;5071706;28;20028;-82
2022/04/06 02:15:20;;;;;;;15.43;9.90;;;8.70;99.90;;;;;;5050480;28;20122;-81
2022/04/06 02:17:46;;;;;;;18.40;9.27;;;8.80;99.90;;;;;;5051942;28;20083;-82
2022/04/06 02:20:12;;;;;;;22.17;9.48;;;8.80;99.90;;;;;;5064576;28;20045;-82
2022/04/06 02:22:38;;;;;;;16.90;8.88;;;8.80;99.90;;;;;;5058486;28;20048;-82
2022/04/06 02:25:04;;;;;;;19.83;8.82;;;8.80;99.90;;;;;;5071196;28;20083;-82
2022/04/06 02:27:30;;;;;;;15.23;8.40;;;8.80;99.90;;;;;;5071292;28;20041;-82
2022/04/06 02:29:55;;;;;;;17.65;7.88;;;8.80;99.90;;;;;;5072852;28;20428;-82
2022/04/06 02:32:21;;;;;;;16.42;7.47;;;8.80;99.90;;;;;;5075057;28;20060;-82
2022/04/06 02:34:47;;;;;;;19.10;7.57;;;8.80;99.90;;;;;;5055411;28;20466;-81
2022/04/06 02:37:12;;;;;;;17.15;7.70;;;8.80;99.90;;;;;;5055925;28;20426;-82
2022/04/06 02:39:38;;;;;;;11.25;5.72;;;8.80;99.90;;;;;;5054839;28;20134;-82
2022/04/06 02:42:04;;;;;;;13.98;7.05;;;8.90;99.90;;;;;;5071264;28;20051;-82
2022/04/06 02:44:30;;;;;;;17.13;6.53;;;8.90;99.90;;;;;;5046803;28;20467;-81
2022/04/06 02:46:56;;;;;;;10.38;6.05;;;8.90;99.90;;;;;;5055261;28;20049;-82
2022/04/06 02:49:21;;;;;;;14.13;6.65;;;8.80;99.90;;;;;;5069865;28;20044;-81
2022/04/06 02:51:47;;;;;;;17.50;6.13;;;8.80;99.90;;;;;;5074927;28;20536;-81
2022/04/06 02:54:13;;;;;;;14.00;5.85;;;8.80;99.90;;;;;;5057403;28;20041;-81
2022/04/06 02:56:39;;;;;;;13.13;5.68;;;8.90;99.90;;;;;;5069145;28;20032;-82
2022/04/06 02:59:04;;;;;;;13.57;5.30;;;8.80;99.90;;;;;;5055940;28;20601;-82
2022/04/06 03:01:30;;;;;;;10.55;5.03;;;8.80;99.90;;;;;;5066688;28;20036;-82
2022/04/06 03:03:55;;;;;;;12.02;5.38;;;8.90;99.90;;;;;;5045264;28;20462;-82
2022/04/06 03:06:21;;;;;;;11.88;5.10;;;8.90;99.90;;;;;;5074649;28;20032;-82
2022/04/06 03:08:47;;;;;;;10.55;4.57;;;8.90;99.90;;;;;;5044776;28;20041;-82
2022/04/06 03:11:12;;;;;;;10.35;5.50;;;8.90;99.90;;;;;;5056017;28;20190;-82
2022/04/06 03:13:38;;;;;;;13.32;4.97;;;8.80;99.90;;;;;;5073924;28;20036;-82
2022/04/06 03:16:05;;;;;;;11.90;4.78;;;8.90;99.90;;;;;;5076417;28;20043;-82
2022/04/06 03:18:30;;;;;;;10.13;4.53;;;8.90;99.90;;;;;;5074198;28;20078;-81
2022/04/06 03:20:56;;;;;;;12.77;5.05;;;8.90;99.90;;;;;;5059904;28;20083;-82
2022/04/06 03:23:22;;;;;;;11.57;5.00;;;8.90;99.90;;;;;;5065388;28;20041;-82
2022/04/06 03:25:48;;;;;;;14.80;5.88;;;8.90;99.90;;;;;;5073753;28;20679;-82
2022/04/06 03:28:14;;;;;;;14.13;5.30;;;8.90;99.90;;;;;;5064399;28;20071;-82
2022/04/06 03:30:40;;;;;;;17.70;5.70;;;8.80;99.90;;;;;;5053713;28;20478;-81
2022/04/06 03:33:08;;;;;;;13.45;5.68;;;8.80;99.90;;;;;;5064970;28;20036;-81
2022/04/06 03:35:37;;;;;;;14.38;6.32;;;8.80;99.90;;;;;;5070448;28;20459;-81
2022/04/06 03:38:03;;;;;;;13.80;6.20;;;8.80;99.90;;;;;;5070824;28;20036;-81
2022/04/06 03:40:28;;;;;;;16.60;7.05;;;8.80;99.90;;;;;;5073783;28;20044;-81
2022/04/06 03:42:55;;;;;;;17.10;6.80;;;8.70;99.90;;;;;;5072894;28;20041;-81
2022/04/06 03:45:21;;;;;;;15.13;6.82;;;8.80;99.90;;;;;;5072060;28;20032;-81
2022/04/06 03:47:47;;;;;;;14.73;7.47;;;8.70;99.90;;;;;;5055473;28;20062;-81
2022/04/06 03:50:13;;;;;;;18.55;6.93;;;8.80;99.90;;;;;;5073285;28;20048;-81
2022/04/06 03:52:38;;;;;;;16.55;7.55;;;8.70;99.90;;;;;;5073769;28;20476;-81
2022/04/06 03:55:05;;;;;;;21.27;8.30;;;8.80;99.90;;;;;;5073601;28;20415;-81
2022/04/06 03:57:31;;;;;;;19.05;8.43;;;8.70;99.90;;;;;;5066050;28;20470;-81
2022/04/06 03:59:57;;;;;;;17.63;7.82;;;8.80;99.90;;;;;;5064152;28;20056;-82
2022/04/06 04:02:22;;;;;;;23.52;8.77;;;8.70;99.90;;;;;;5073279;28;20519;-82
2022/04/06 04:04:48;;;;;;;21.70;9.50;;;8.80;99.90;;;;;;5072544;28;20041;-81
2022/04/06 04:07:23;;;;;;;19.77;8.55;;;8.80;99.90;;;;;;5073173;28;20044;-82
2022/04/06 04:09:49;;;;;;;24.10;9.15;;;8.80;99.90;;;;;;5056690;28;20132;-81
2022/04/06 04:12:15;;;;;;;21.60;9.38;;;8.80;99.90;;;;;;5055477;28;20087;-81
2022/04/06 04:14:41;;;;;;;24.15;9.98;;;8.80;99.90;;;;;;5055386;28;20048;-81
2022/04/06 04:17:06;;;;;;;24.48;10.20;;;8.80;99.90;;;;;;5092757;28;20123;-82
2022/04/06 04:19:32;;;;;;;21.48;8.93;;;8.80;99.90;;;;;;5055806;28;20070;-82
2022/04/06 04:21:58;;;;;;;23.88;9.80;;;8.90;99.90;;;;;;5068004;28;20093;-81
2022/04/06 04:24:23;;;;;;;21.48;9.80;;;8.90;99.90;;;;;;5059021;28;20041;-82
2022/04/06 04:26:49;;;;;;;27.02;10.77;;;8.90;99.90;;;;;;5061490;28;20095;-80
2022/04/06 04:29:15;;;;;;;24.83;10.82;;;8.90;99.90;;;;;;5061546;28;20068;-81
2022/04/06 04:31:41;;;;;;;19.15;10.35;;;8.90;99.90;;;;;;5072962;28;20123;-81
2022/04/06 04:34:06;;;;;;;20.42;9.32;;;8.90;99.90;;;;;;5054799;28;20048;-82
2022/04/06 04:36:32;;;;;;;21.88;10.20;;;8.90;99.90;;;;;;5068284;28;20045;-81
2022/04/06 04:38:57;;;;;;;19.63;9.15;;;8.90;99.90;;;;;;5072593;28;20047;-81
2022/04/06 04:41:24;;;;;;;21.20;9.73;;;8.90;99.90;;;;;;5071958;28;20161;-81
2022/04/06 04:43:50;;;;;;;18.77;10.18;;;8.90;99.90;;;;;;5072961;28;20048;-82
2022/04/06 04:46:18;;;;;;;18.05;9.55;;;8.90;99.90;;;;;;5072830;28;20052;-82
2022/04/06 04:48:44;;;;;;;22.67;9.00;;;8.80;99.90;;;;;;5073295;28;20048;-82
2022/04/06 04:51:10;;;;;;;17.98;8.60;;;8.80;99.90;;;;;;5067615;28;20052;-82
2022/04/06 04:53:35;;;;;;;17.10;9.07;;;8.80;99.90;;;;;;5052917;28;20045;-82
2022/04/06 04:56:01;;;;;;;20.02;8.32;;;8.80;99.90;;;;;;5056441;28;20393;-82
2022/04/06 04:58:27;;;;;;;18.58;7.90;;;8.70;99.90;;;;;;5047695;28;20036;-82
2022/04/06 05:00:54;;;;;;;19.27;8.23;;;8.80;99.90;;;;;;5069534;28;20040;-81
2022/04/06 05:03:19;;;;;;;16.77;6.55;;;8.70;99.90;;;;;;5072335;28;20036;-82
2022/04/06 05:05:48;;;;;;;17.58;7.30;;;8.80;99.90;;;;;;5062182;28;20462;-82
2022/04/06 05:08:14;;;;;;;18.40;7.53;;;8.80;99.90;;;;;;5072904;28;20131;-82
2022/04/06 05:10:39;;;;;;;20.35;7.00;;;8.70;99.90;;;;;;5070118;28;20565;-82
2022/04/06 05:13:05;;;;;;;19.40;6.90;;;8.70;99.90;;;;;;5053675;28;20041;-82
2022/04/06 05:15:31;;;;;;;14.40;5.80;;;8.70;99.90;;;;;;5055458;28;20094;-82
2022/04/06 05:17:56;;;;;;;14.40;5.93;;;8.70;99.90;;;;;;5069746;28;20051;-82
2022/04/06 05:20:22;;;;;;;23.48;5.85;;;8.60;99.90;;;;;;5071125;28;20036;-82
2022/04/06 05:22:47;;;;;;;13.27;5.00;;;8.60;99.90;;;;;;5066437;28;20052;-82
2022/04/06 05:25:13;;;;;;;14.30;6.05;;;8.60;99.90;;;;;;5067543;28;20076;-82
2022/04/06 05:27:47;;;;;;;14.40;5.32;;;8.60;99.90;;;;;;5046504;28;20174;-82
2022/04/06 05:30:15;;;;;;;14.93;5.65;;;8.60;99.90;;;;;;5056549;28;20083;-82
2022/04/06 05:32:41;;;;;;;18.10;6.13;;;8.60;99.90;;;;;;5037870;28;20564;-82
2022/04/06 05:35:08;;;;;;;16.23;5.32;;;8.60;99.90;;;;;;5057565;28;20115;-82
2022/04/06 05:37:34;;;;;;;13.48;4.75;;;8.60;99.90;;;;;;5051072;28;20056;-82
2022/04/06 05:40:00;;;;;;;17.27;4.75;;;8.70;99.90;;;;;;5051454;28;20120;-82
2022/04/06 05:42:26;;;;;;;12.75;4.95;;;8.70;99.90;;;;;;5035569;28;20059;-82
2022/04/06 05:44:51;;;;;;;11.18;3.90;;;8.70;99.90;;;;;;5053771;28;20126;-82
2022/04/06 05:47:17;;;;;;;14.10;4.72;;;8.70;99.90;;;;;;5058621;28;20049;-81
2022/04/06 05:49:43;;;;;;;13.43;4.63;;;8.70;99.90;;;;;;5053029;28;20033;-80
2022/04/06 05:52:09;;;;;;;15.63;4.32;;;8.80;99.90;;;;;;5061572;28;20056;-82
2022/04/06 05:54:36;;;;;;;10.88;4.05;;;8.80;99.90;;;;;;5051400;28;20502;-82
2022/04/06 05:57:02;;;;;;;8.85;3.50;;;8.70;99.90;;;;;;5043822;28;20557;-82
2022/04/06 05:59:28;;;;;;;9.25;3.65;;;8.80;99.90;;;;;;5055296;28;20033;-81
2022/04/06 06:01:53;;;;;;;9.57;3.40;;;8.80;99.90;;;;;;5063774;28;20131;-81
2022/04/06 06:04:19;;;;;;;12.43;3.40;;;8.80;99.90;;;;;;5063303;28;20067;-81
2022/04/06 06:06:44;;;;;;;7.97;3.35;;;8.80;99.90;;;;;;5075600;28;20040;-82
2022/04/06 06:09:10;;;;;;;10.20;3.70;;;8.90;99.90;;;;;;5046554;28;20033;-82
2022/04/06 06:11:36;;;;;;;9.07;3.20;;;8.90;99.90;;;;;;5047944;28;20359;-82
2022/04/06 06:14:02;;;;;;;10.05;3.78;;;8.90;99.90;;;;;;5076026;28;20040;-82
2022/04/06 06:16:28;;;;;;;10.13;4.00;;;8.80;99.90;;;;;;5058587;28;20090;-82
2022/04/06 06:18:55;;;;;;;9.73;3.97;;;8.80;99.90;;;;;;5061644;28;20041;-82
2022/04/06 06:21:21;;;;;;;8.13;3.33;;;8.80;99.90;;;;;;5067006;28;20474;-82
2022/04/06 06:23:47;;;;;;;8.23;3.20;;;8.80;99.90;;;;;;5073341;28;20083;-82
2022/04/06 06:26:13;;;;;;;11.15;3.15;;;8.80;99.90;;;;;;5063759;28;20044;-82
2022/04/06 06:28:39;;;;;;;10.68;4.15;;;8.80;99.90;;;;;;5067757;28;20029;-82
2022/04/06 06:31:05;;;;;;;10.70;4.18;;;8.80;99.90;;;;;;5066784;28;20099;-82
2022/04/06 06:33:30;;;;;;;8.23;3.33;;;8.70;99.90;;;;;;5075171;28;20599;-82
2022/04/06 06:35:56;;;;;;;9.57;3.22;;;8.70;99.90;;;;;;5072110;28;20087;-81
2022/04/06 06:38:22;;;;;;;10.00;3.50;;;8.70;99.90;;;;;;5057682;28;20040;-82
2022/04/06 06:40:48;;;;;;;8.38;3.33;;;8.70;99.90;;;;;;5075164;28;20052;-82
2022/04/06 06:43:15;;;;;;;8.07;2.85;;;8.70;99.90;;;;;;5058407;28;20489;-82
2022/04/06 06:45:40;;;;;;;8.95;3.20;;;8.70;99.90;;;;;;5074980;28;20040;-81
2022/04/06 06:48:06;;;;;;;8.25;3.00;;;8.70;99.90;;;;;;5074651;28;20485;-81
2022/04/06 06:50:32;;;;;;;12.52;3.03;;;8.70;99.90;;;;;;5065615;28;20083;-81
2022/04/06 06:52:58;;;;;;;9.02;3.10;;;8.70;99.90;;;;;;5062597;28;20073;-82
2022/04/06 06:55:23;;;;;;;7.50;2.55;;;8.70;99.90;;;;;;5052883;28;20036;-80
2022/04/06 06:57:49;;;;;;;8.32;2.50;;;8.80;99.90;;;;;;5060101;28;20032;-81
2022/04/06 07:00:15;;;;;;;4.70;2.08;;;8.80;99.90;;;;;;5069507;28;20044;-81
2022/04/06 07:02:41;;;;;;;7.07;2.85;;;8.80;99.90;;;;;;5054783;28;20033;-81
2022/04/06 07:05:08;;;;;;;5.18;2.53;;;8.90;99.90;;;;;;5074090;28;20048;-81
2022/04/06 07:07:54;;;;;;;12.13;2.90;;;8.90;99.90;;;;;;5059147;28;20048;-81
2022/04/06 07:10:23;;;;;;;10.00;3.20;;;9.00;99.90;;;;;;5040700;28;20040;-77
2022/04/06 07:12:49;;;;;;;10.73;3.10;;;9.00;99.90;;;;;;5066324;28;20093;-80
2022/04/06 07:15:15;;;;;;;9.52;3.55;;;9.00;99.90;;;;;;5073447;28;20482;-81
2022/04/06 07:17:41;;;;;;;8.40;3.03;;;9.00;99.90;;;;;;5047519;28;20128;-81
2022/04/06 07:20:07;;;;;;;8.38;3.08;;;9.10;99.90;;;;;;5066182;28;20055;-80
2022/04/06 07:22:33;;;;;;;9.77;2.92;;;9.00;99.90;;;;;;5042834;28;20111;-80
2022/04/06 07:24:58;;;;;;;10.63;2.88;;;8.90;99.90;;;;;;5060040;28;20467;-81
2022/04/06 07:27:24;;;;;;;7.10;3.55;;;8.90;99.90;;;;;;5037217;28;20037;-81
2022/04/06 07:29:51;;;;;;;12.57;3.67;;;8.90;99.90;;;;;;5062208;28;20040;-80
2022/04/06 07:32:17;;;;;;;10.38;3.63;;;8.90;99.90;;;;;;5053208;28;20382;-80
2022/04/06 07:34:43;;;;;;;11.10;3.42;;;8.90;99.90;;;;;;5040255;28;20041;-80
2022/04/06 07:37:09;;;;;;;11.60;3.70;;;8.90;99.90;;;;;;5069950;28;20339;-80
2022/04/06 07:39:35;;;;;;;15.15;4.00;;;8.90;99.90;;;;;;5080714;28;20051;-80
2022/04/06 07:42:01;;;;;;;13.13;3.97;;;8.90;99.90;;;;;;5071116;28;20066;-80
2022/04/06 07:44:27;;;;;;;9.77;3.17;;;8.80;99.90;;;;;;5056692;28;20849;-80
2022/04/06 07:46:52;;;;;;;10.40;3.53;;;8.80;99.90;;;;;;5061157;28;20068;-80
2022/04/06 07:49:18;;;;;;;13.23;4.10;;;8.90;99.90;;;;;;5073065;28;20367;-80
2022/04/06 07:51:45;;;;;;;13.18;4.10;;;8.90;99.90;;;;;;5070759;28;20120;-79
2022/04/06 07:54:11;;;;;;;14.20;4.63;;;8.90;99.90;;;;;;5062477;28;20046;-80
2022/04/06 07:56:38;;;;;;;12.40;3.88;;;8.90;99.90;;;;;;5041425;28;20116;-80
2022/04/06 07:59:03;;;;;;;13.43;3.60;;;9.00;99.90;;;;;;5050851;28;20055;-81
2022/04/06 08:01:29;;;;;;;9.48;3.55;;;9.10;99.90;;;;;;5071402;28;20036;-81
2022/04/06 08:03:55;;;;;;;9.50;4.15;;;9.00;99.90;;;;;;5056396;28;20123;-81
2022/04/06 08:06:22;;;;;;;9.05;3.65;;;9.00;99.90;;;;;;5062997;28;20501;-81
2022/04/06 08:08:51;;;;;;;13.73;4.50;;;9.10;99.90;;;;;;5071662;28;20051;-80
2022/04/06 08:11:17;;;;;;;14.82;4.82;;;9.00;99.90;;;;;;5070668;28;20048;-81
2022/04/06 08:13:43;;;;;;;11.82;4.05;;;9.00;99.90;;;;;;5070646;28;20048;-81
2022/04/06 08:16:09;;;;;;;13.25;4.15;;;9.00;99.90;;;;;;5065759;28;20642;-81
2022/04/06 08:18:35;;;;;;;15.00;4.85;;;9.00;99.90;;;;;;5064909;28;20029;-81
2022/04/06 08:21:00;;;;;;;12.75;4.03;;;9.00;99.90;;;;;;5071900;28;20044;-81
2022/04/06 08:23:29;;;;;;;16.65;4.80;;;9.00;99.90;;;;;;5069345;28;20036;-81
2022/04/06 08:25:57;;;;;;;14.27;4.65;;;9.00;99.90;;;;;;5064691;28;20079;-80
2022/04/06 08:28:26;;;;;;;10.55;4.55;;;9.10;99.90;;;;;;5065979;28;20071;-80
2022/04/06 08:31:00;;;;;;;11.82;4.65;;;9.20;99.90;;;;;;5059530;28;20044;-80
2022/04/06 08:33:26;;;;;;;9.80;4.15;;;9.20;99.90;;;;;;5066243;28;20044;-80
2022/04/06 08:35:52;;;;;;;12.52;4.50;;;9.20;99.90;;;;;;5064166;28;20048;-81
2022/04/06 08:38:26;;;;;;;14.77;4.13;;;9.30;99.90;;;;;;5046995;28;20040;-81
2022/04/06 08:40:55;;;;;;;10.20;3.67;;;9.30;99.90;;;;;;5065012;28;20162;-81
2022/04/06 08:43:33;;;;;;;11.35;3.95;;;9.30;99.90;;;;;;5064976;28;20109;-81
2022/04/06 08:46:04;;;;;;;10.83;4.20;;;9.30;99.90;;;;;;5062536;28;20374;-81
2022/04/06 08:48:29;;;;;;;9.15;3.75;;;9.40;99.90;;;;;;5049476;28;20033;-81
2022/04/06 08:51:00;;;;;;;8.60;3.55;;;9.30;99.90;;;;;;5067539;28;20097;-81
2022/04/06 08:53:25;;;;;;;10.18;4.05;;;9.20;99.90;;;;;;5044589;28;20056;-82
2022/04/06 08:55:51;;;;;;;10.75;4.18;;;9.30;99.90;;;;;;5070353;28;20086;-81
2022/04/06 08:58:16;;;;;;;11.13;3.45;;;9.30;99.90;;;;;;5042630;28;20549;-80
2022/04/06 09:00:42;;;;;;;9.55;3.90;;;9.40;99.90;;;;;;5059824;28;20041;-81
2022/04/06 09:03:07;;;;;;;9.70;4.03;;;9.30;99.90;;;;;;5068712;28;20070;-80
2022/04/06 09:05:34;;;;;;;9.43;3.60;;;9.30;99.90;;;;;;5051447;28;20500;-80
2022/04/06 09:08:02;;;;;;;8.63;3.25;;;9.30;99.90;;;;;;5066257;28;20048;-80
2022/04/06 09:10:33;;;;;;;10.30;3.97;;;9.40;99.90;;;;;;5060042;28;20052;-80
2022/04/06 09:13:11;;;;;;;12.93;3.95;;;9.40;99.90;;;;;;5062065;28;20040;-80
2022/04/06 09:15:37;;;;;;;9.80;4.53;;;9.40;99.90;;;;;;5048180;28;20064;-81
2022/04/06 09:18:03;;;;;;;14.43;6.18;;;9.50;99.90;;;;;;5064117;28;20033;-80
2022/04/06 09:20:29;;;;;;;11.23;4.85;;;9.70;99.90;;;;;;5066533;28;20071;-81
2022/04/06 09:22:55;;;;;;;9.25;3.17;;;9.90;99.90;;;;;;5047077;28;20080;-81
2022/04/06 09:25:21;;;;;;;8.93;3.33;;;10.00;99.90;;;;;;5052301;28;20537;-81
2022/04/06 09:27:47;;;;;;;11.30;3.53;;;10.10;99.90;;;;;;5068277;28;20044;-80
2022/04/06 09:30:13;;;;;;;5.65;3.05;;;10.20;99.90;;;;;;5049691;28;20434;-80
2022/04/06 09:32:42;;;;;;;9.75;3.13;;;10.30;99.90;;;;;;5066518;28;20040;-80
2022/04/06 09:35:37;;;;;;;8.90;3.33;;;10.30;99.90;;;;;;5059271;28;20045;-81
2022/04/06 09:38:13;;;;;;;9.73;3.70;;;10.30;99.90;;;;;;5060435;28;20356;-80
2022/04/06 09:40:40;;;;;;;8.02;2.83;;;10.40;99.90;;;;;;5069386;28;20028;-80
2022/04/06 09:43:07;;;;;;;10.10;3.60;;;10.40;99.90;;;;;;5051848;28;20035;-80
2022/04/06 09:48:17;;;;;;;8.50;2.72;;;10.30;99.90;;;;;;5061802;28;20058;-81
2022/04/06 09:50:56;;;;;;;11.85;3.17;;;10.30;99.90;;;;;;5050945;28;20455;-81
2022/04/06 09:53:27;;;;;;;7.95;3.08;;;10.40;99.90;;;;;;5068164;28;20402;-81
2022/04/06 09:55:57;;;;;;;14.52;3.47;;;10.40;99.90;;;;;;5067960;28;20032;-81
2022/04/06 09:58:23;;;;;;;6.38;3.20;;;10.40;99.90;;;;;;5049000;28;20033;-81
2022/04/06 10:00:51;;;;;;;9.15;3.00;;;10.40;99.90;;;;;;5060220;28;20045;-81
2022/04/06 10:03:18;;;;;;;10.50;3.80;;;10.40;99.90;;;;;;5051590;28;20044;-81
2022/04/06 10:05:46;;;;;;;9.68;3.65;;;10.50;99.90;;;;;;5068113;28;20048;-81
2022/04/06 10:08:12;;;;;;;10.20;3.65;;;10.60;99.90;;;;;;5054412;28;20347;-81
2022/04/06 10:10:40;;;;;;;8.68;3.60;;;10.60;99.90;;;;;;5061410;28;20042;-81
2022/04/06 10:13:10;;;;;;;12.85;4.20;;;10.60;99.90;;;;;;5049788;28;20044;-81
2022/04/06 10:15:37;;;;;;;10.15;3.45;;;10.50;99.90;;;;;;5051709;28;20055;-81
2022/04/06 10:18:06;;;;;;;8.63;3.40;;;10.50;99.90;;;;;;5064093;28;20044;-81
2022/04/06 10:20:44;;;;;;;10.70;3.85;;;10.50;99.90;;;;;;5046826;28;20047;-81
2022/04/06 10:23:23;;;;;;;9.15;3.47;;;10.50;99.90;;;;;;5062612;28;20406;-81
2022/04/06 10:25:51;;;;;;;8.27;3.42;;;10.40;99.90;;;;;;5062565;28;20045;-81
2022/04/06 10:28:20;;;;;;;9.70;3.72;;;10.40;99.90;;;;;;5047788;28;20036;-81
2022/04/06 10:31:19;;;;;;;9.65;4.35;;;10.30;99.90;;;;;;5065024;28;20045;-81
2022/04/06 10:33:45;;;;;;;15.88;4.75;;;10.30;99.90;;;;;;5068074;28;20542;-81
2022/04/06 10:36:29;;;;;;;12.65;4.50;;;10.30;99.90;;;;;;5069730;28;20051;-82
2022/04/06 10:39:04;;;;;;;10.95;5.32;;;10.20;99.90;;;;;;5052236;28;20048;-82
2022/04/06 10:41:31;;;;;;;11.93;4.28;;;10.30;99.90;;;;;;5052513;28;20032;-81
2022/04/06 10:43:57;;;;;;;12.18;4.43;;;10.30;99.90;;;;;;5070789;28;20043;-82
2022/04/06 10:46:41;;;;;;;12.68;4.93;;;10.30;99.90;;;;;;5051937;28;20086;-82
2022/04/06 10:49:06;;;;;;;13.10;4.63;;;10.20;99.90;;;;;;5068958;28;20477;-81
2022/04/06 10:51:40;;;;;;;13.00;4.93;;;10.30;99.90;;;;;;5071893;28;20040;-81
2022/04/06 10:54:12;;;;;;;18.33;5.25;;;10.30;99.90;;;;;;5064410;28;20049;-81
2022/04/06 10:56:49;;;;;;;11.55;5.68;;;10.30;99.90;;;;;;5067289;28;20561;-81
2022/04/06 10:59:28;;;;;;;11.15;5.30;;;10.20;99.90;;;;;;5050740;28;20460;-81
2022/04/06 11:02:16;;;;;;;11.77;4.93;;;10.20;99.90;;;;;;5073809;28;20486;-81
2022/04/06 11:04:42;;;;;;;11.43;5.55;;;10.20;99.90;;;;;;5066717;28;20083;-81
2022/04/06 11:07:08;;;;;;;16.02;5.63;;;10.20;99.90;;;;;;5070619;28;20068;-81
2022/04/06 11:12:21;;;;;;;12.50;5.63;;;10.20;99.90;;;;;;5070726;28;20044;-81
2022/04/06 11:14:49;;;;;;;15.55;6.03;;;10.20;99.90;;;;;;5058814;28;20054;-80
2022/04/06 11:17:32;;;;;;;14.65;6.10;;;10.10;99.90;;;;;;5067343;28;20596;-80
2022/04/06 11:19:58;;;;;;;13.45;5.25;;;10.10;99.90;;;;;;5064949;28;20048;-80
2022/04/06 11:22:24;;;;;;;13.05;5.30;;;10.20;99.90;;;;;;5066187;28;20068;-81
2022/04/06 11:24:50;;;;;;;12.70;5.75;;;10.20;99.90;;;;;;5052762;28;20082;-80
2022/04/06 11:27:30;;;;;;;9.20;4.50;;;10.20;99.90;;;;;;5064891;28;20066;-80
2022/04/06 11:30:16;;;;;;;8.93;5.63;;;10.40;99.90;;;;;;5070208;28;20053;-80
2022/04/06 11:32:49;;;;;;;11.50;5.78;;;10.40;99.90;;;;;;5071807;28;20045;-80
2022/04/06 11:35:16;;;;;;;10.88;5.60;;;10.50;99.90;;;;;;5067870;28;20048;-80
2022/04/06 11:37:43;;;;;;;10.60;5.43;;;10.80;99.90;;;;;;5062200;28;20049;-80
2022/04/06 11:40:10;;;;;;;12.52;6.25;;;11.20;99.90;;;;;;5048705;28;20450;-80
2022/04/06 11:42:36;;;;;;;14.35;5.70;;;11.30;99.90;;;;;;5053972;28;20124;-80
2022/04/06 11:45:02;;;;;;;11.13;4.97;;;11.50;99.90;;;;;;5055003;28;20127;-80
2022/04/06 11:47:30;;;;;;;10.25;5.30;;;11.70;99.90;;;;;;5070563;28;20075;-80
2022/04/06 11:49:56;;;;;;;10.85;5.05;;;11.80;99.90;;;;;;5069008;28;20079;-80
2022/04/06 11:52:22;;;;;;;14.48;4.93;;;11.70;99.90;;;;;;5068511;22;20068;-75
2022/04/06 11:54:55;;;;;;;7.82;5.10;;;11.70;99.90;;;;;;5064972;28;20059;-75
2022/04/06 11:57:33;;;;;;;8.95;4.22;;;11.70;99.90;;;;;;5065500;28;20047;-76
2022/04/06 11:59:58;;;;;;;12.55;5.63;;;11.60;99.90;;;;;;5053368;28;20139;-75
2022/04/06 12:02:24;;;;;;;8.45;5.43;;;11.50;99.90;;;;;;5050662;28;20135;-75
2022/04/06 12:05:00;;;;;;;11.25;5.15;;;11.50;99.90;;;;;;5069238;28;20160;-75
2022/04/06 12:07:26;;;;;;;13.75;5.80;;;11.60;99.90;;;;;;5050095;28;20078;-75
2022/04/06 12:09:51;;;;;;;8.25;4.80;;;11.70;99.90;;;;;;5059471;28;20592;-75
2022/04/06 12:12:18;;;;;;;10.10;4.45;;;11.90;99.90;;;;;;5063957;28;20519;-75
2022/04/06 12:14:44;;;;;;;9.55;4.47;;;12.10;99.90;;;;;;5070911;28;20047;-75
2022/04/06 12:17:12;;;;;;;13.18;5.25;;;12.20;99.90;;;;;;5064949;28;20049;-75
2022/04/06 12:19:37;;;;;;;13.93;5.30;;;12.20;99.90;;;;;;5051680;28;20040;-75
2022/04/06 12:22:07;;;;;;;9.63;5.05;;;12.40;99.90;;;;;;5043317;28;20081;-75
2022/04/06 12:24:38;;;;;;;9.32;5.03;;;12.50;99.90;;;;;;5063386;28;20037;-75
2022/04/06 12:27:04;;;;;;;15.50;5.72;;;12.60;99.90;;;;;;5049420;28;20435;-75
2022/04/06 12:29:32;;;;;;;12.88;5.15;;;12.80;99.90;;;;;;5049773;28;20403;-75
2022/04/06 12:31:58;;;;;;;8.07;4.55;;;13.00;99.90;;;;;;5067440;28;20501;-75
2022/04/06 12:34:35;;;;;;;9.45;4.40;;;13.20;99.90;;;;;;5069045;28;20093;-75
2022/04/06 12:37:29;;;;;;;8.88;4.88;;;13.30;99.90;;;;;;5060466;28;20106;-75
2022/04/06 12:39:50;;;;;;;9.45;4.38;;;13.40;99.90;;;;;;5062504;28;20052;-76
2022/04/06 12:42:16;;;;;;;10.05;4.57;;;13.50;99.90;;;;;;5059623;28;20032;-75
2022/04/06 12:45:02;;;;;;;12.30;4.63;;;13.60;99.90;;;;;;5068426;28;20532;-75
2022/04/06 12:47:28;;;;;;;8.80;4.47;;;13.50;99.90;;;;;;5061113;28;20044;-75
2022/04/06 12:50:13;;;;;;;14.30;4.80;;;13.40;99.90;;;;;;5052861;28;20405;-75
2022/04/06 12:52:39;;;;;;;9.18;4.60;;;13.30;99.90;;;;;;5065015;28;20167;-75
2022/04/06 12:55:07;;;;;;;10.40;4.30;;;13.40;99.90;;;;;;5064847;28;20119;-75
2022/04/06 12:57:36;;;;;;;9.43;4.88;;;13.30;99.90;;;;;;5060077;28;20072;-75